Terminal Aerodrome Forecast
Issued by NWS

Home | Current Version | Previous Version | Text Only | Print | Product List | Glossary On
Versions: 1 2 3 4 5 6 7 8 9 10 11 12 13 14 15 16 17 18 19 20 21 22 23 24 25
372
FTUS46 KEKA 172127 AAB
TAFUKI
TAF AMD
KUKI 172127Z 1721/1818 VRB03KT P6SM FEW005 SCT060 OVC150
     FM180000 15004KT 5SM BR SCT060 OVC120
     FM180200 16003KT 2SM BR VCSH FEW008 SCT015 OVC025
     FM181200 16010G18KT 3/4SM -RA BR SCT006 OVC015=

USA.gov is the U.S. government's official web portal to all federal, state and local government web resources and services.